createdAt,value
2022-08-17T00:01:52.595Z,12.32
2022-08-17T00:04:23.002Z,13.73
2022-08-17T00:06:53.360Z,15.30
2022-08-17T00:09:22.119Z,19.33
2022-08-17T00:12:41.114Z,14.95
2022-08-17T00:14:39.985Z,16.48
2022-08-17T00:17:09.849Z,14.55
2022-08-17T00:19:39.047Z,15.73
2022-08-17T00:22:34.789Z,10.38
2022-08-17T00:24:56.617Z,12.70
2022-08-17T00:27:25.093Z,12.77
2022-08-17T00:29:54.031Z,13.43
2022-08-17T00:33:13.740Z,11.57
2022-08-17T00:35:13.653Z,15.77
2022-08-17T00:37:42.336Z,14.05
2022-08-17T00:40:11.829Z,11.30
2022-08-17T00:42:40.400Z,15.30
2022-08-17T00:45:11.760Z,12.63
2022-08-17T00:47:41.668Z,12.30
2022-08-17T00:50:12.135Z,14.60
2022-08-17T00:52:44.182Z,11.98
2022-08-17T00:55:12.835Z,12.77
2022-08-17T00:57:44.507Z,13.93
2022-08-17T01:00:14.692Z,11.10
2022-08-17T01:02:45.791Z,11.05
2022-08-17T01:05:16.573Z,14.10
2022-08-17T01:07:48.388Z,9.80
2022-08-17T01:10:58.269Z,12.65
2022-08-17T01:13:07.090Z,11.05
2022-08-17T01:15:37.486Z,10.50
2022-08-17T01:18:09.524Z,11.05
2022-08-17T01:20:47.915Z,11.05
2022-08-17T01:23:20.919Z,11.70
2022-08-17T01:25:51.486Z,10.98
2022-08-17T01:28:33.638Z,11.40
2022-08-17T01:31:10.260Z,12.75
2022-08-17T01:33:39.264Z,9.00
2022-08-17T01:36:09.058Z,13.43
2022-08-17T01:38:39.691Z,9.10
2022-08-17T01:41:10.637Z,13.98
2022-08-17T01:43:41.764Z,12.13
2022-08-17T01:46:11.063Z,12.35
2022-08-17T01:48:40.188Z,10.85
2022-08-17T01:51:09.364Z,11.35
2022-08-17T01:53:41.340Z,10.40
2022-08-17T01:56:11.149Z,10.75
2022-08-17T01:58:40.602Z,11.88
2022-08-17T02:01:10.097Z,12.02
2022-08-17T02:03:38.940Z,10.43
2022-08-17T02:06:27.270Z,9.98
2022-08-17T02:09:03.296Z,14.88
2022-08-17T02:11:33.009Z,11.90
2022-08-17T02:14:03.114Z,9.63
2022-08-17T02:16:37.021Z,12.50
2022-08-17T02:19:06.723Z,11.98
2022-08-17T02:21:35.316Z,10.43
2022-08-17T02:24:06.302Z,11.18
2022-08-17T02:26:34.843Z,10.98
2022-08-17T02:29:04.155Z,12.43
2022-08-17T02:31:32.991Z,12.05
2022-08-17T02:34:04.482Z,11.07
2022-08-17T02:36:33.928Z,12.05
2022-08-17T02:39:02.741Z,11.90
2022-08-17T02:41:32.647Z,13.00
2022-08-17T02:44:01.220Z,11.52
2022-08-17T02:46:31.118Z,13.68
2022-08-17T02:48:59.908Z,13.60
2022-08-17T02:51:28.515Z,12.27
2022-08-17T02:54:35.747Z,10.80
2022-08-17T02:56:47.087Z,15.38
2022-08-17T02:59:15.598Z,11.82
2022-08-17T03:01:44.135Z,13.02
2022-08-17T03:04:12.729Z,10.65
2022-08-17T03:06:41.194Z,13.07
2022-08-17T03:09:09.860Z,14.60
2022-08-17T03:11:38.521Z,12.07
2022-08-17T03:14:08.347Z,11.95
2022-08-17T03:16:36.864Z,13.35
2022-08-17T03:19:05.511Z,12.38
2022-08-17T03:21:34.044Z,15.38
2022-08-17T03:24:02.554Z,11.77
2022-08-17T03:26:37.609Z,15.30
2022-08-17T03:29:06.091Z,14.43
2022-08-17T03:31:37.090Z,15.63
2022-08-17T03:34:06.667Z,15.57
2022-08-17T03:36:36.021Z,12.43
2022-08-17T03:39:04.751Z,11.85
2022-08-17T03:41:33.264Z,14.02
2022-08-17T03:44:01.747Z,14.95
2022-08-17T03:46:47.758Z,11.38
2022-08-17T03:49:35.308Z,13.50
2022-08-17T03:52:21.586Z,13.98
2022-08-17T03:55:07.684Z,13.38
2022-08-17T03:57:36.878Z,11.88
2022-08-17T04:00:06.309Z,10.80
2022-08-17T04:02:35.524Z,12.90
2022-08-17T04:05:05.710Z,13.32
2022-08-17T04:07:34.219Z,11.45
2022-08-17T04:10:02.811Z,17.15
2022-08-17T04:12:44.046Z,10.55
2022-08-17T04:15:13.471Z,12.05
2022-08-17T04:17:44.240Z,12.10
2022-08-17T04:20:15.111Z,12.75
2022-08-17T04:22:57.327Z,13.85
2022-08-17T04:25:27.380Z,12.10
2022-08-17T04:27:55.954Z,15.07
2022-08-17T04:30:24.792Z,12.25
2022-08-17T04:33:10.557Z,11.10
2022-08-17T04:35:41.445Z,16.38
2022-08-17T04:38:11.112Z,14.77
2022-08-17T04:40:57.132Z,12.65
2022-08-17T04:43:26.398Z,11.13
2022-08-17T04:45:57.050Z,11.32
2022-08-17T04:48:29.715Z,12.50
2022-08-17T04:51:06.935Z,13.27
2022-08-17T04:53:35.493Z,14.02
2022-08-17T04:56:04.038Z,12.43
2022-08-17T04:58:32.769Z,13.18
2022-08-17T05:01:01.762Z,15.15
2022-08-17T05:03:30.335Z,14.73
2022-08-17T05:05:58.778Z,13.32
2022-08-17T05:08:28.752Z,14.75
2022-08-17T05:10:57.265Z,9.82
2022-08-17T05:13:27.307Z,11.27
2022-08-17T05:15:56.728Z,14.02
2022-08-17T05:18:25.446Z,18.52
2022-08-17T05:20:54.252Z,12.07
2022-08-17T05:23:24.311Z,9.95
2022-08-17T05:25:56.358Z,14.30
2022-08-17T05:28:27.605Z,9.73
2022-08-17T05:30:58.934Z,13.95
2022-08-17T05:33:29.227Z,11.13
2022-08-17T05:35:58.878Z,13.90
2022-08-17T05:38:28.792Z,12.60
2022-08-17T05:40:59.208Z,11.90
2022-08-17T05:43:29.246Z,12.63
2022-08-17T05:46:02.595Z,15.52
2022-08-17T05:48:36.791Z,13.10
2022-08-17T05:51:23.950Z,16.52
2022-08-17T05:53:57.879Z,12.00
2022-08-17T05:56:34.240Z,13.82
2022-08-17T05:59:06.858Z,12.38
2022-08-17T06:01:37.370Z,12.98
2022-08-17T06:04:09.746Z,12.73
2022-08-17T06:06:42.104Z,12.63
2022-08-17T06:09:26.611Z,11.45
2022-08-17T06:12:04.773Z,14.88
2022-08-17T06:14:42.555Z,17.88
2022-08-17T06:17:13.385Z,9.80
2022-08-17T06:19:43.266Z,11.82
2022-08-17T06:22:13.513Z,11.65
2022-08-17T06:24:44.255Z,12.93
2022-08-17T06:27:18.490Z,14.95
2022-08-17T06:29:54.384Z,14.73
2022-08-17T06:32:23.259Z,13.00
2022-08-17T06:34:51.563Z,13.48
2022-08-17T06:37:48.972Z,13.10
2022-08-17T06:40:33.618Z,13.45
2022-08-17T06:43:15.675Z,11.20
2022-08-17T06:45:49.562Z,15.25
2022-08-17T06:48:25.651Z,13.60
2022-08-17T06:50:59.934Z,15.48
2022-08-17T06:53:33.105Z,14.63
2022-08-17T06:56:06.008Z,17.63
2022-08-17T06:58:40.107Z,13.52
2022-08-17T07:01:12.447Z,13.82
2022-08-17T07:03:47.687Z,13.93
2022-08-17T07:06:18.393Z,12.40
2022-08-17T07:08:54.159Z,14.32
2022-08-17T07:11:28.478Z,16.85
2022-08-17T07:14:05.520Z,13.80
2022-08-17T07:16:39.760Z,20.75
2022-08-17T07:19:10.984Z,20.42
2022-08-17T07:21:50.261Z,21.92
2022-08-17T07:24:35.817Z,17.50
2022-08-17T07:27:14.244Z,19.92
2022-08-17T07:29:50.999Z,19.35
2022-08-17T07:32:25.111Z,15.30
2022-08-17T07:35:11.458Z,26.65
2022-08-17T07:37:42.420Z,21.48
2022-08-17T07:40:27.119Z,21.33
2022-08-17T07:43:07.323Z,16.95
2022-08-17T07:46:15.705Z,21.58
2022-08-17T07:48:46.442Z,25.13
2022-08-17T07:51:19.068Z,22.77
2022-08-17T07:53:48.453Z,20.35
2022-08-17T07:56:36.324Z,19.60
2022-08-17T07:59:10.169Z,23.17
2022-08-17T08:01:41.693Z,22.70
2022-08-17T08:04:59.007Z,21.02
2022-08-17T08:07:27.111Z,20.15
2022-08-17T08:10:05.342Z,19.38
2022-08-17T08:12:36.211Z,19.08
2022-08-17T08:15:11.007Z,18.42
2022-08-17T08:17:52.061Z,17.23
2022-08-17T08:20:52.763Z,22.48
2022-08-17T08:23:25.762Z,21.13
2022-08-17T08:26:12.360Z,16.40
2022-08-17T08:28:52.546Z,20.30
2022-08-17T08:31:33.461Z,16.48
2022-08-17T08:34:44.585Z,23.88
2022-08-17T08:37:19.142Z,17.27
2022-08-17T08:39:59.511Z,16.83
2022-08-17T08:42:36.663Z,15.10
2022-08-17T08:45:13.783Z,19.23
2022-08-17T08:47:58.850Z,20.02
2022-08-17T08:50:47.667Z,33.80
2022-08-17T08:53:27.405Z,28.15
2022-08-17T08:56:06.056Z,20.52
2022-08-17T08:58:43.612Z,18.92
2022-08-17T09:01:22.107Z,24.20
2022-08-17T09:04:25.026Z,22.90
2022-08-17T09:07:00.433Z,20.35
2022-08-17T09:09:35.643Z,22.08
2022-08-17T09:12:07.349Z,28.23
2022-08-17T09:14:46.481Z,21.75
2022-08-17T09:17:18.484Z,24.05
2022-08-17T09:19:50.512Z,25.55
2022-08-17T09:22:31.540Z,21.27
2022-08-17T09:25:06.534Z,25.45
2022-08-17T09:27:37.453Z,25.17
2022-08-17T09:30:08.968Z,20.42
2022-08-17T09:32:41.009Z,18.98
2022-08-17T09:35:14.530Z,21.55
2022-08-17T09:37:49.891Z,20.48
2022-08-17T09:40:20.984Z,20.63
2022-08-17T09:42:51.729Z,21.88
2022-08-17T09:45:29.749Z,20.13
2022-08-17T09:48:01.393Z,16.75
2022-08-17T09:51:03.118Z,23.48
2022-08-17T09:53:23.960Z,19.85
2022-08-17T09:55:58.000Z,22.13
2022-08-17T09:58:29.450Z,21.63
2022-08-17T10:01:03.669Z,26.15
2022-08-17T10:03:41.786Z,21.98
2022-08-17T10:06:21.264Z,20.30
2022-08-17T10:08:57.376Z,17.73
2022-08-17T10:11:52.736Z,19.40
2022-08-17T10:14:36.364Z,17.60
2022-08-17T10:17:14.629Z,17.83
2022-08-17T10:19:47.801Z,22.30
2022-08-17T10:22:39.677Z,18.95
2022-08-17T10:25:48.580Z,18.40
2022-08-17T10:28:20.031Z,20.90
2022-08-17T10:30:51.687Z,20.85
2022-08-17T10:33:23.973Z,24.40
2022-08-17T10:35:57.047Z,24.48
2022-08-17T10:38:30.387Z,16.42
2022-08-17T10:41:03.392Z,20.30
2022-08-17T10:44:36.748Z,20.90
2022-08-17T10:46:46.992Z,13.68
2022-08-17T10:49:24.250Z,20.48
2022-08-17T10:51:54.498Z,17.02
2022-08-17T10:54:36.779Z,22.30
2022-08-17T10:57:24.993Z,19.92
2022-08-17T10:59:54.521Z,16.52
2022-08-17T11:02:28.223Z,17.70
2022-08-17T11:05:03.028Z,17.77
2022-08-17T11:07:43.880Z,16.65
2022-08-17T11:10:27.603Z,15.82
2022-08-17T11:13:02.918Z,17.63
2022-08-17T11:15:42.234Z,18.42
2022-08-17T11:18:20.686Z,17.27
2022-08-17T11:21:13.402Z,18.45
2022-08-17T11:23:53.492Z,13.32
2022-08-17T11:26:26.235Z,11.10
2022-08-17T11:29:00.176Z,13.25
2022-08-17T11:31:39.321Z,14.35
2022-08-17T11:34:14.676Z,12.85
2022-08-17T11:36:56.069Z,16.88
2022-08-17T11:39:42.536Z,21.20
2022-08-17T11:42:20.025Z,20.63
2022-08-17T11:44:53.205Z,15.05
2022-08-17T11:47:40.867Z,24.70
2022-08-17T11:50:37.614Z,17.83
2022-08-17T11:53:06.550Z,14.68
2022-08-17T11:55:53.591Z,16.83
2022-08-17T11:58:37.508Z,18.83
2022-08-17T12:01:08.303Z,16.30
2022-08-17T12:03:55.259Z,16.75
2022-08-17T12:06:43.215Z,22.60
2022-08-17T12:09:14.437Z,20.30
2022-08-17T12:11:55.185Z,21.23
2022-08-17T12:15:09.546Z,19.67
2022-08-17T12:17:40.118Z,17.38
2022-08-17T12:20:14.626Z,16.95
2022-08-17T12:22:47.161Z,20.35
2022-08-17T12:25:17.515Z,18.92
2022-08-17T12:28:06.504Z,17.85
2022-08-17T12:30:36.521Z,20.70
2022-08-17T12:33:13.417Z,11.93
2022-08-17T12:35:59.715Z,14.73
2022-08-17T12:38:33.274Z,18.50
2022-08-17T12:41:23.457Z,17.00
2022-08-17T12:44:02.294Z,15.23
2022-08-17T12:46:33.562Z,18.70
2022-08-17T12:49:23.891Z,18.35
2022-08-17T12:51:55.688Z,16.92
2022-08-17T12:54:27.496Z,18.40
2022-08-17T12:56:56.117Z,20.30
2022-08-17T12:59:29.787Z,20.10
2022-08-17T13:01:59.282Z,15.35
2022-08-17T13:04:29.564Z,20.50
2022-08-17T13:06:59.917Z,17.27
2022-08-17T13:09:35.941Z,20.20
2022-08-17T13:12:09.305Z,16.70
2022-08-17T13:14:37.910Z,15.93
2022-08-17T13:17:12.685Z,16.88
2022-08-17T13:19:49.265Z,18.45
2022-08-17T13:22:23.073Z,15.73
2022-08-17T13:24:54.550Z,16.30
2022-08-17T13:27:24.287Z,17.55
2022-08-17T13:29:55.845Z,19.88
2022-08-17T13:32:33.677Z,19.25
2022-08-17T13:35:15.572Z,20.77
2022-08-17T13:37:58.830Z,16.85
2022-08-17T13:40:29.185Z,14.27
2022-08-17T13:42:57.997Z,14.40
2022-08-17T13:45:53.457Z,16.70
2022-08-17T13:48:23.906Z,13.95
2022-08-17T13:51:05.716Z,17.90
2022-08-17T13:53:50.516Z,22.30
2022-08-17T13:56:33.548Z,17.70
2022-08-17T13:59:08.122Z,24.80
2022-08-17T14:01:38.383Z,16.52
2022-08-17T14:04:08.584Z,15.15
2022-08-17T14:06:52.414Z,17.63
2022-08-17T14:09:24.855Z,17.85
2022-08-17T14:11:54.106Z,12.30
2022-08-17T14:14:23.858Z,16.77
2022-08-17T14:16:52.332Z,20.55
2022-08-17T14:19:21.922Z,17.50
2022-08-17T14:21:50.901Z,19.15
2022-08-17T14:24:24.465Z,20.00
2022-08-17T14:26:53.514Z,15.32
2022-08-17T14:29:22.799Z,19.90
2022-08-17T14:31:54.149Z,17.60
2022-08-17T14:34:23.961Z,19.63
2022-08-17T14:36:53.061Z,21.67
2022-08-17T14:39:23.137Z,23.63
2022-08-17T14:41:53.037Z,20.75
2022-08-17T14:44:21.615Z,17.50
2022-08-17T14:46:50.610Z,14.70
2022-08-17T14:49:20.690Z,20.77
2022-08-17T14:51:49.568Z,16.50
2022-08-17T14:54:33.147Z,18.95
2022-08-17T14:57:24.658Z,19.67
2022-08-17T14:59:55.080Z,17.60
2022-08-17T15:02:29.833Z,18.98
2022-08-17T15:05:00.615Z,20.70
2022-08-17T15:07:30.337Z,15.13
2022-08-17T15:10:00.497Z,19.60
2022-08-17T15:12:34.108Z,23.85
2022-08-17T15:15:04.709Z,15.77
2022-08-17T15:17:54.740Z,16.20
2022-08-17T15:20:24.854Z,17.38
2022-08-17T15:22:55.349Z,15.15
2022-08-17T15:25:24.504Z,22.77
2022-08-17T15:27:55.571Z,19.95
2022-08-17T15:30:24.097Z,21.58
2022-08-17T15:32:55.268Z,17.60
2022-08-17T15:35:27.244Z,19.45
2022-08-17T15:37:56.205Z,18.23
2022-08-17T15:40:25.120Z,18.70
2022-08-17T15:42:55.099Z,13.48
2022-08-17T15:45:28.359Z,18.15
2022-08-17T15:47:56.919Z,19.90
2022-08-17T15:50:25.393Z,16.15
2022-08-17T15:52:58.632Z,15.98
2022-08-17T15:55:29.929Z,10.80
2022-08-17T15:57:59.856Z,17.20
2022-08-17T16:00:29.511Z,14.95
2022-08-17T16:03:45.011Z,14.07
2022-08-17T16:05:50.231Z,11.30
2022-08-17T16:08:21.322Z,17.58
2022-08-17T16:10:50.186Z,13.38
2022-08-17T16:13:20.772Z,13.48
2022-08-17T16:15:56.993Z,15.50
2022-08-17T16:18:28.332Z,11.98
2022-08-17T16:20:57.127Z,14.50
2022-08-17T16:23:25.822Z,18.55
2022-08-17T16:25:54.629Z,15.68
2022-08-17T16:28:29.880Z,14.80
2022-08-17T16:31:05.911Z,16.05
2022-08-17T16:33:37.732Z,17.13
2022-08-17T16:36:07.324Z,11.15
2022-08-17T16:38:35.853Z,13.60
2022-08-17T16:41:05.079Z,15.65
2022-08-17T16:43:35.065Z,16.98
2022-08-17T16:46:03.620Z,16.98
2022-08-17T16:48:32.167Z,13.18
2022-08-17T16:51:04.276Z,15.40
2022-08-17T16:53:33.160Z,12.85
2022-08-17T16:56:01.665Z,18.35
2022-08-17T16:58:30.193Z,16.63
2022-08-17T17:01:00.102Z,13.10
2022-08-17T17:03:30.249Z,15.68
2022-08-17T17:06:10.207Z,15.23
2022-08-17T17:08:46.778Z,13.55
2022-08-17T17:11:18.318Z,13.45
2022-08-17T17:13:54.190Z,14.75
2022-08-17T17:16:33.020Z,13.23
2022-08-17T17:19:10.386Z,13.75
2022-08-17T17:21:56.016Z,14.38
2022-08-17T17:24:32.088Z,15.35
2022-08-17T17:27:17.661Z,15.43
2022-08-17T17:30:03.194Z,10.05
2022-08-17T17:32:39.020Z,11.48
2022-08-17T17:35:13.002Z,16.17
2022-08-17T17:37:43.965Z,19.40
2022-08-17T17:40:19.154Z,16.70
2022-08-17T17:42:49.456Z,15.95
2022-08-17T17:45:23.392Z,15.95
2022-08-17T17:47:53.781Z,14.02
2022-08-17T17:50:30.698Z,15.65
2022-08-17T17:53:04.784Z,22.63
2022-08-17T17:55:45.276Z,16.15
2022-08-17T17:58:20.439Z,16.52
2022-08-17T18:00:52.447Z,17.25
2022-08-17T18:03:27.184Z,15.27
2022-08-17T18:06:10.443Z,15.75
2022-08-17T18:08:45.690Z,15.15
2022-08-17T18:11:24.015Z,10.55
2022-08-17T18:13:58.859Z,13.27
2022-08-17T18:16:29.777Z,12.10
2022-08-17T18:19:02.330Z,16.13
2022-08-17T18:21:34.679Z,15.18
2022-08-17T18:24:04.509Z,12.60
2022-08-17T18:26:45.141Z,18.52
2022-08-17T18:29:15.661Z,21.40
2022-08-17T18:31:44.147Z,18.48
2022-08-17T18:34:46.036Z,18.92
2022-08-17T18:37:16.080Z,15.98
2022-08-17T18:39:48.034Z,15.50
2022-08-17T18:42:26.621Z,15.75
2022-08-17T18:44:56.106Z,18.55
2022-08-17T18:47:25.592Z,18.10
2022-08-17T18:49:58.288Z,14.18
2022-08-17T18:52:28.016Z,24.02
2022-08-17T18:55:04.432Z,18.02
2022-08-17T18:57:36.533Z,19.02
2022-08-17T19:00:12.605Z,16.65
2022-08-17T19:02:51.482Z,16.73
2022-08-17T19:05:32.861Z,15.30
2022-08-17T19:08:16.401Z,14.48
2022-08-17T19:10:47.264Z,15.63
2022-08-17T19:13:23.852Z,17.25
2022-08-17T19:16:12.148Z,17.70
2022-08-17T19:18:45.671Z,14.75
2022-08-17T19:21:17.841Z,15.60
2022-08-17T19:23:54.233Z,20.17
2022-08-17T19:26:53.928Z,17.08
2022-08-17T19:29:16.258Z,22.58
2022-08-17T19:31:48.217Z,25.13
2022-08-17T19:34:33.341Z,28.20
2022-08-17T19:37:09.069Z,26.50
2022-08-17T19:39:42.215Z,26.05
2022-08-17T19:42:12.636Z,26.60
2022-08-17T19:44:47.202Z,25.73
2022-08-17T19:47:30.735Z,24.70
2022-08-17T19:50:10.836Z,25.80
2022-08-17T19:52:52.848Z,29.35
2022-08-17T19:55:31.510Z,29.52
2022-08-17T19:58:04.448Z,25.67
2022-08-17T20:00:33.680Z,23.67
2022-08-17T20:03:06.583Z,25.95
2022-08-17T20:06:08.481Z,29.27
2022-08-17T20:08:31.232Z,25.60
2022-08-17T20:11:01.378Z,27.52
2022-08-17T20:13:32.917Z,24.33
2022-08-17T20:16:02.781Z,27.23
2022-08-17T20:18:47.879Z,22.48
2022-08-17T20:21:19.997Z,18.92
2022-08-17T20:23:54.333Z,17.63
2022-08-17T20:26:26.435Z,22.00
2022-08-17T20:29:09.187Z,19.17
2022-08-17T20:31:42.438Z,17.65
2022-08-17T20:34:36.895Z,24.23
2022-08-17T20:37:08.780Z,17.33
2022-08-17T20:39:41.410Z,16.25
2022-08-17T20:42:12.604Z,19.10
2022-08-17T20:44:42.170Z,21.33
2022-08-17T20:47:13.867Z,17.52
2022-08-17T20:49:49.480Z,17.23
2022-08-17T20:52:38.564Z,19.65
2022-08-17T20:55:09.508Z,14.48
2022-08-17T20:57:47.461Z,18.75
2022-08-17T21:00:41.578Z,16.83
2022-08-17T21:03:40.013Z,15.35
2022-08-17T21:06:18.771Z,15.05
2022-08-17T21:08:53.758Z,16.98
2022-08-17T21:12:02.612Z,18.33
2022-08-17T21:14:39.495Z,16.05
2022-08-17T21:17:17.201Z,16.60
2022-08-17T21:20:10.353Z,15.45
2022-08-17T21:22:48.675Z,16.08
2022-08-17T21:25:25.615Z,16.05
2022-08-17T21:28:01.539Z,15.38
2022-08-17T21:30:48.129Z,17.63
2022-08-17T21:33:20.257Z,15.20
2022-08-17T21:35:52.273Z,18.60
2022-08-17T21:38:22.483Z,18.00
2022-08-17T21:40:52.829Z,18.35
2022-08-17T21:43:32.443Z,15.43
2022-08-17T21:46:02.772Z,17.35
2022-08-17T21:48:32.413Z,16.92
2022-08-17T21:51:03.765Z,17.65
2022-08-17T21:53:36.948Z,14.70
2022-08-17T21:56:06.321Z,17.92
2022-08-17T21:58:39.211Z,17.50
2022-08-17T22:01:13.334Z,19.95
2022-08-17T22:03:42.750Z,16.05
2022-08-17T22:06:21.100Z,12.70
2022-08-17T22:08:59.824Z,15.38
2022-08-17T22:11:28.527Z,18.70
2022-08-17T22:14:00.679Z,17.50
2022-08-17T22:16:34.914Z,15.57
2022-08-17T22:19:03.872Z,14.80
2022-08-17T22:21:32.375Z,13.73
2022-08-17T22:24:04.469Z,16.25
2022-08-17T22:26:48.029Z,14.75
2022-08-17T22:29:31.736Z,19.75
2022-08-17T22:32:01.628Z,21.33
2022-08-17T22:34:30.124Z,22.17
2022-08-17T22:37:13.443Z,17.48
2022-08-17T22:39:42.161Z,24.20
2022-08-17T22:42:15.607Z,25.77
2022-08-17T22:44:48.649Z,31.55
2022-08-17T22:47:30.550Z,30.40
2022-08-17T22:50:00.729Z,26.13
2022-08-17T22:52:34.330Z,21.80
2022-08-17T22:55:21.827Z,21.38
2022-08-17T22:58:08.168Z,20.30
2022-08-17T23:00:38.794Z,23.30
2022-08-17T23:03:19.718Z,16.45
2022-08-17T23:05:49.088Z,20.13
2022-08-17T23:08:21.445Z,18.33
2022-08-17T23:10:50.433Z,17.58
2022-08-17T23:13:21.355Z,19.08
2022-08-17T23:15:50.429Z,21.20
2022-08-17T23:18:20.499Z,22.50
2022-08-17T23:20:49.029Z,18.23
2022-08-17T23:23:23.455Z,18.33
2022-08-17T23:25:52.255Z,17.13
2022-08-17T23:28:21.904Z,19.98
2022-08-17T23:30:50.438Z,18.63
2022-08-17T23:33:27.706Z,22.42
2022-08-17T23:35:56.228Z,20.08
2022-08-17T23:38:27.342Z,19.77
2022-08-17T23:40:56.064Z,23.98
2022-08-17T23:43:25.623Z,22.60
2022-08-17T23:45:57.716Z,23.88
2022-08-17T23:48:36.557Z,28.45
2022-08-17T23:51:09.093Z,17.33
2022-08-17T23:53:41.926Z,21.38
2022-08-17T23:56:11.864Z,19.50
2022-08-17T23:58:43.136Z,22.15
